Time;durP1;ratioP1;P1;durP2;ratioP2;P2;SDS_P1;SDS_P2;PMS_P1;PMS_P2;Temp;Humidity;BMP_temperature;BMP_pressure;BME280_temperature;BME280_humidity;BME280_pressure;Samples;Min_cycle;Max_cycle;Signal;HPM_P1;HPM_P2
2022/04/13 00:01:11;;;;;;;6.90;4.00;;;11.10;99.90;;;;;;5031152;28;20191;-47
2022/04/13 00:03:36;;;;;;;5.40;4.23;;;11.20;99.90;;;;;;5013619;28;20190;-48
2022/04/13 00:06:02;;;;;;;6.17;3.97;;;11.10;99.90;;;;;;5031530;28;20179;-48
2022/04/13 00:08:28;;;;;;;6.03;4.27;;;11.10;99.90;;;;;;5013542;28;20555;-48
2022/04/13 00:10:53;;;;;;;5.37;3.70;;;11.10;99.90;;;;;;5030799;28;20640;-48
2022/04/13 00:13:18;;;;;;;5.50;3.80;;;11.10;99.90;;;;;;5031211;28;20206;-48
2022/04/13 00:15:44;;;;;;;6.20;3.90;;;11.00;99.90;;;;;;5029628;28;20176;-48
2022/04/13 00:18:10;;;;;;;10.00;4.43;;;11.10;99.90;;;;;;5012735;28;20217;-48
2022/04/13 00:20:36;;;;;;;8.50;4.47;;;11.10;99.90;;;;;;5031029;28;20171;-48
2022/04/13 00:23:03;;;;;;;5.73;3.70;;;11.10;99.90;;;;;;5030451;28;20469;-48
2022/04/13 00:25:29;;;;;;;6.77;3.97;;;11.10;99.90;;;;;;5031281;28;20424;-46
2022/04/13 00:27:55;;;;;;;6.97;4.37;;;11.00;99.90;;;;;;5031225;28;20438;-46
2022/04/13 00:30:21;;;;;;;5.77;4.40;;;10.90;99.90;;;;;;5030856;28;20436;-46
2022/04/13 00:32:47;;;;;;;6.33;4.23;;;10.90;99.90;;;;;;5016984;28;20438;-46
2022/04/13 00:35:13;;;;;;;8.00;4.10;;;10.90;99.90;;;;;;5030708;28;20494;-46
2022/04/13 00:37:39;;;;;;;6.43;4.20;;;10.90;99.90;;;;;;5030796;28;20202;-46
2022/04/13 00:40:06;;;;;;;8.67;4.60;;;11.00;99.90;;;;;;5030450;28;20175;-46
2022/04/13 00:42:32;;;;;;;8.33;4.60;;;11.00;99.90;;;;;;5029944;28;20451;-45
2022/04/13 00:44:58;;;;;;;9.77;4.33;;;11.00;99.90;;;;;;5029281;28;20426;-46
2022/04/13 00:47:24;;;;;;;8.40;4.70;;;11.00;99.90;;;;;;5029824;28;20242;-46
2022/04/13 00:49:50;;;;;;;5.40;4.37;;;10.90;99.90;;;;;;5030223;28;20206;-46
2022/04/13 00:52:18;;;;;;;5.53;4.10;;;10.90;99.90;;;;;;5030434;28;20520;-46
2022/04/13 00:54:48;;;;;;;9.03;4.77;;;10.90;99.90;;;;;;5030091;28;20629;-46
2022/04/13 00:57:17;;;;;;;9.30;4.80;;;10.80;99.90;;;;;;5030421;28;20430;-46
2022/04/13 00:59:48;;;;;;;7.07;4.90;;;10.90;99.90;;;;;;5030326;28;20446;-46
2022/04/13 01:02:15;;;;;;;8.10;4.93;;;10.90;99.90;;;;;;5022637;28;20923;-45
2022/04/13 01:04:43;;;;;;;9.53;4.07;;;10.80;99.90;;;;;;5030603;28;20436;-46
2022/04/13 01:07:09;;;;;;;8.73;4.37;;;10.90;99.90;;;;;;5030515;28;20516;-46
2022/04/13 01:09:36;;;;;;;9.43;4.30;;;10.80;99.90;;;;;;5025314;28;20446;-46
2022/04/13 01:12:02;;;;;;;11.97;4.40;;;10.70;99.90;;;;;;5029963;28;20421;-46
2022/04/13 01:14:28;;;;;;;7.87;4.80;;;10.60;99.90;;;;;;5029824;28;20728;-46
2022/04/13 01:16:54;;;;;;;7.50;4.60;;;10.70;99.90;;;;;;5029928;28;20429;-46
2022/04/13 01:19:19;;;;;;;6.90;4.67;;;10.60;99.90;;;;;;5029819;28;20464;-46
2022/04/13 01:21:52;;;;;;;10.93;5.03;;;10.50;99.90;;;;;;5029756;28;20183;-46
2022/04/13 01:24:18;;;;;;;8.00;4.73;;;10.50;99.90;;;;;;5018884;28;20197;-46
2022/04/13 01:26:44;;;;;;;10.97;4.83;;;10.50;99.90;;;;;;5029971;28;20465;-46
2022/04/13 01:29:11;;;;;;;8.53;4.63;;;10.50;99.90;;;;;;5029063;28;20883;-46
2022/04/13 01:31:37;;;;;;;8.93;4.90;;;10.50;99.90;;;;;;5029306;28;20433;-46
2022/04/13 01:34:04;;;;;;;9.50;5.20;;;10.60;99.90;;;;;;5029167;28;20438;-46
2022/04/13 01:36:31;;;;;;;6.60;5.13;;;10.60;99.90;;;;;;5029176;28;20432;-46
2022/04/13 01:38:57;;;;;;;7.47;5.10;;;10.60;99.90;;;;;;5029484;28;20469;-46
2022/04/13 01:41:22;;;;;;;11.03;4.97;;;10.60;99.90;;;;;;5029528;28;20861;-46
2022/04/13 01:43:48;;;;;;;8.40;5.00;;;10.60;99.90;;;;;;5028914;28;20210;-46
2022/04/13 01:46:13;;;;;;;11.17;5.50;;;10.60;99.90;;;;;;5029439;28;20183;-46
2022/04/13 01:48:39;;;;;;;11.73;5.63;;;10.50;99.90;;;;;;5029055;28;20238;-46
2022/04/13 01:51:04;;;;;;;16.43;5.40;;;10.50;99.90;;;;;;5030140;28;20194;-46
2022/04/13 01:53:30;;;;;;;6.33;4.60;;;10.50;99.90;;;;;;5029510;28;20221;-46
2022/04/13 01:55:57;;;;;;;7.27;4.90;;;10.60;99.90;;;;;;5029275;28;20179;-46
2022/04/13 01:58:23;;;;;;;10.80;5.20;;;10.70;99.90;;;;;;5011214;28;20727;-46
2022/04/13 02:00:53;;;;;;;10.40;4.73;;;10.70;99.90;;;;;;5029491;28;20505;-46
2022/04/13 02:03:20;;;;;;;10.97;4.77;;;10.70;99.90;;;;;;5029505;28;20229;-46
2022/04/13 02:05:46;;;;;;;9.00;5.10;;;10.70;99.90;;;;;;5029453;28;20434;-46
2022/04/13 02:08:12;;;;;;;8.00;5.30;;;10.70;99.90;;;;;;5028634;28;20755;-46
2022/04/13 02:10:37;;;;;;;8.87;5.00;;;10.70;99.90;;;;;;5029512;28;20183;-46
2022/04/13 02:13:03;;;;;;;8.83;5.27;;;10.60;99.90;;;;;;5011272;28;20187;-46
2022/04/13 02:15:29;;;;;;;10.00;5.40;;;10.60;99.90;;;;;;5011717;28;20258;-46
2022/04/13 02:17:54;;;;;;;8.77;5.20;;;10.60;99.90;;;;;;5028684;28;20206;-46
2022/04/13 02:20:20;;;;;;;9.67;4.80;;;10.50;99.90;;;;;;5029029;28;20189;-46
2022/04/13 02:22:46;;;;;;;8.17;4.83;;;10.60;99.90;;;;;;5029489;28;20643;-45
2022/04/13 02:25:12;;;;;;;8.00;5.43;;;10.50;99.90;;;;;;5028842;28;20204;-46
2022/04/13 02:27:37;;;;;;;12.23;5.23;;;10.50;99.90;;;;;;5028717;28;20433;-46
2022/04/13 02:30:04;;;;;;;9.07;5.50;;;10.50;99.90;;;;;;5025452;28;20538;-45
2022/04/13 02:32:30;;;;;;;10.77;5.97;;;10.50;99.90;;;;;;5033139;28;20199;-46
2022/04/13 02:34:55;;;;;;;9.03;5.30;;;10.40;99.90;;;;;;5028903;28;20429;-45
2022/04/13 02:37:21;;;;;;;10.00;5.40;;;10.40;99.90;;;;;;5010996;28;20237;-46
2022/04/13 02:39:46;;;;;;;6.37;4.50;;;10.50;99.90;;;;;;5028569;28;20217;-46
2022/04/13 02:42:14;;;;;;;7.60;5.30;;;10.40;99.90;;;;;;5029235;28;20194;-46
2022/04/13 02:44:41;;;;;;;10.27;6.10;;;10.40;99.90;;;;;;5029470;28;20198;-46
2022/04/13 02:47:06;;;;;;;8.57;5.40;;;10.50;99.90;;;;;;5023447;28;20538;-45
2022/04/13 02:49:32;;;;;;;8.30;5.53;;;10.40;99.90;;;;;;5028720;28;20923;-46
2022/04/13 02:51:57;;;;;;;12.03;6.03;;;10.50;99.90;;;;;;5011221;28;20183;-46
2022/04/13 02:54:23;;;;;;;8.13;5.93;;;10.50;99.90;;;;;;5029438;28;20183;-46
2022/04/13 02:56:48;;;;;;;8.70;5.77;;;10.50;99.90;;;;;;5028686;28;20557;-45
2022/04/13 02:59:14;;;;;;;9.00;5.43;;;10.60;99.90;;;;;;5028997;28;20550;-46
2022/04/13 03:01:42;;;;;;;7.10;5.10;;;10.50;99.90;;;;;;5028348;28;20245;-46
2022/04/13 03:04:07;;;;;;;8.73;5.57;;;10.60;99.90;;;;;;5008845;28;20425;-46
2022/04/13 03:06:33;;;;;;;10.83;5.93;;;10.60;99.90;;;;;;5029633;28;20425;-46
2022/04/13 03:08:58;;;;;;;7.07;5.60;;;10.50;99.90;;;;;;5035328;28;20191;-45
2022/04/13 03:11:24;;;;;;;10.20;5.40;;;10.50;99.90;;;;;;5031946;28;20607;-45
2022/04/13 03:13:49;;;;;;;9.63;6.10;;;10.50;99.90;;;;;;5032438;28;20242;-46
2022/04/13 03:16:15;;;;;;;7.77;5.73;;;10.50;99.90;;;;;;5031622;28;20621;-45
2022/04/13 03:18:41;;;;;;;10.10;5.90;;;10.50;99.90;;;;;;5031301;28;20291;-45
2022/04/13 03:21:06;;;;;;;10.33;6.10;;;10.40;99.90;;;;;;5014485;28;20175;-47
2022/04/13 03:23:32;;;;;;;10.03;5.93;;;10.40;99.90;;;;;;5031441;28;20167;-48
2022/04/13 03:25:57;;;;;;;8.80;5.90;;;10.50;99.90;;;;;;5031653;28;21816;-48
2022/04/13 03:28:24;;;;;;;7.73;5.87;;;10.50;99.90;;;;;;5031468;28;20187;-48
2022/04/13 03:30:50;;;;;;;9.10;5.93;;;10.50;99.90;;;;;;5031516;28;20185;-48
2022/04/13 03:33:17;;;;;;;9.40;5.47;;;10.40;99.90;;;;;;5031691;28;20425;-48
2022/04/13 03:35:43;;;;;;;9.30;5.73;;;10.40;99.90;;;;;;5031749;28;20488;-48
2022/04/13 03:38:09;;;;;;;9.90;5.93;;;10.30;99.90;;;;;;5031470;28;20462;-48
2022/04/13 03:40:34;;;;;;;9.50;5.60;;;10.30;99.90;;;;;;5031991;28;20191;-48
2022/04/13 03:43:00;;;;;;;12.10;6.20;;;10.30;99.90;;;;;;5030693;28;20186;-47
2022/04/13 03:45:25;;;;;;;8.63;6.73;;;10.30;99.90;;;;;;5032511;28;20557;-48
2022/04/13 03:47:51;;;;;;;9.60;6.23;;;10.30;99.90;;;;;;5031002;28;20292;-48
2022/04/13 03:50:17;;;;;;;8.37;6.07;;;10.20;99.90;;;;;;5031727;28;20541;-47
2022/04/13 03:52:43;;;;;;;9.67;6.20;;;10.20;99.90;;;;;;5031755;28;20183;-47
2022/04/13 03:55:11;;;;;;;11.40;6.10;;;10.20;99.90;;;;;;5030931;28;20475;-47
2022/04/13 03:57:36;;;;;;;10.53;6.60;;;10.20;99.90;;;;;;5031310;28;20217;-48
2022/04/13 04:00:04;;;;;;;8.73;5.50;;;10.20;99.90;;;;;;5031427;28;20888;-48
2022/04/13 04:02:29;;;;;;;9.97;6.60;;;10.20;99.90;;;;;;5031344;28;20628;-50
2022/04/13 04:04:55;;;;;;;10.97;6.33;;;10.30;99.90;;;;;;5031149;28;20428;-51
2022/04/13 04:07:20;;;;;;;9.63;6.47;;;10.40;99.90;;;;;;5031330;28;20183;-51
2022/04/13 04:09:46;;;;;;;10.00;6.40;;;10.30;99.90;;;;;;5031246;28;20559;-50
2022/04/13 04:12:11;;;;;;;10.07;6.43;;;10.30;99.90;;;;;;5030975;28;20185;-50
2022/04/13 04:14:37;;;;;;;12.60;6.00;;;10.30;99.90;;;;;;5031500;28;20175;-50
2022/04/13 04:17:03;;;;;;;10.70;6.13;;;10.20;99.90;;;;;;5030370;28;20183;-51
2022/04/13 04:19:28;;;;;;;9.87;6.20;;;10.10;99.90;;;;;;5030118;28;20512;-50
2022/04/13 04:21:55;;;;;;;12.60;6.40;;;10.10;99.90;;;;;;5020145;28;20579;-51
2022/04/13 04:24:21;;;;;;;9.33;6.27;;;10.10;99.90;;;;;;5030891;28;20179;-51
2022/04/13 04:26:47;;;;;;;10.73;6.57;;;10.00;99.90;;;;;;5031982;28;20521;-51
2022/04/13 04:29:12;;;;;;;13.20;6.90;;;9.90;99.90;;;;;;5029038;28;20233;-51
2022/04/13 04:31:49;;;;;;;11.73;6.23;;;9.90;99.90;;;;;;5031100;28;20202;-50
2022/04/13 04:34:16;;;;;;;11.77;6.67;;;9.90;99.90;;;;;;5030797;28;20179;-51
2022/04/13 04:36:42;;;;;;;11.20;6.60;;;9.90;99.90;;;;;;5031296;28;20445;-50
2022/04/13 04:39:07;;;;;;;11.87;7.13;;;9.80;99.90;;;;;;5030918;28;20512;-51
2022/04/13 04:41:33;;;;;;;13.30;7.60;;;9.80;99.90;;;;;;5030938;28;20183;-51
2022/04/13 04:43:59;;;;;;;10.97;6.37;;;9.80;99.90;;;;;;5030742;28;20567;-50
2022/04/13 04:46:25;;;;;;;10.53;6.30;;;9.70;99.90;;;;;;5030243;28;20187;-50
2022/04/13 04:48:50;;;;;;;9.70;6.53;;;9.70;99.90;;;;;;5030511;28;20534;-51
2022/04/13 04:51:16;;;;;;;12.60;6.70;;;9.70;99.90;;;;;;5032549;28;20270;-51
2022/04/13 04:53:41;;;;;;;11.87;6.53;;;9.80;99.90;;;;;;5032105;28;20198;-51
2022/04/13 04:56:07;;;;;;;9.20;6.40;;;9.80;99.90;;;;;;5031911;28;20254;-51
2022/04/13 04:58:33;;;;;;;15.03;6.57;;;9.70;99.90;;;;;;5031948;28;20217;-50
2022/04/13 05:00:59;;;;;;;12.20;7.27;;;9.70;99.90;;;;;;5013882;28;20436;-50
2022/04/13 05:03:24;;;;;;;11.40;7.00;;;9.70;99.90;;;;;;5031569;28;20414;-51
2022/04/13 05:05:51;;;;;;;10.47;6.90;;;9.60;99.90;;;;;;5032303;28;20191;-50
2022/04/13 05:08:16;;;;;;;12.83;7.20;;;9.70;99.90;;;;;;5031354;28;20179;-51
2022/04/13 05:10:43;;;;;;;16.20;7.17;;;9.60;99.90;;;;;;5017821;28;21222;-51
2022/04/13 05:13:09;;;;;;;15.57;7.63;;;9.70;99.90;;;;;;5031283;28;20179;-51
2022/04/13 05:15:34;;;;;;;12.80;7.40;;;9.70;99.90;;;;;;5030625;28;20440;-51
2022/04/13 05:18:00;;;;;;;9.97;6.80;;;9.70;99.90;;;;;;5031157;28;20225;-50
2022/04/13 05:20:26;;;;;;;12.97;8.23;;;9.90;99.90;;;;;;5032422;28;20179;-51
2022/04/13 05:22:51;;;;;;;19.53;7.50;;;9.90;99.90;;;;;;5031192;28;20207;-50
2022/04/13 05:25:17;;;;;;;15.57;7.73;;;10.00;99.90;;;;;;5031512;28;20202;-51
2022/04/13 05:27:44;;;;;;;16.67;7.07;;;10.10;99.90;;;;;;5013155;28;20182;-51
2022/04/13 05:30:11;;;;;;;14.33;6.93;;;10.10;99.90;;;;;;5031146;28;21211;-51
2022/04/13 05:32:50;;;;;;;11.00;7.00;;;10.00;99.90;;;;;;5030373;28;20453;-51
2022/04/13 05:35:17;;;;;;;11.00;6.77;;;10.10;99.90;;;;;;5031056;28;20879;-52
2022/04/13 05:37:43;;;;;;;14.80;7.93;;;10.10;99.90;;;;;;5031178;28;20511;-51
2022/04/13 05:40:09;;;;;;;12.83;7.73;;;10.10;99.90;;;;;;5031872;28;20445;-51
2022/04/13 05:42:35;;;;;;;10.40;6.40;;;10.30;99.90;;;;;;5040769;28;20195;-50
2022/04/13 05:45:00;;;;;;;13.90;7.87;;;10.20;99.90;;;;;;5029993;28;20438;-51
2022/04/13 05:47:26;;;;;;;10.40;7.27;;;10.30;99.90;;;;;;5030568;28;20692;-50
2022/04/13 05:49:52;;;;;;;14.53;7.80;;;10.30;99.90;;;;;;5029518;28;20652;-50
2022/04/13 05:52:17;;;;;;;15.17;8.17;;;10.30;99.90;;;;;;5033950;28;20175;-51
2022/04/13 05:54:43;;;;;;;13.60;8.00;;;10.40;99.90;;;;;;5030088;28;20182;-50
2022/04/13 05:57:08;;;;;;;14.93;7.53;;;10.40;99.90;;;;;;5029805;28;20256;-51
2022/04/13 05:59:35;;;;;;;15.27;8.10;;;10.40;99.90;;;;;;5029500;28;20762;-51
2022/04/13 06:02:01;;;;;;;13.20;7.77;;;10.50;99.90;;;;;;5012430;28;20285;-50
2022/04/13 06:04:27;;;;;;;12.97;7.40;;;10.50;99.90;;;;;;5020306;28;20443;-51
2022/04/13 06:06:56;;;;;;;14.53;8.27;;;10.50;99.90;;;;;;5029567;28;20449;-50
2022/04/13 06:09:22;;;;;;;13.40;8.93;;;10.60;99.90;;;;;;5029369;28;20445;-50
2022/04/13 06:11:51;;;;;;;13.60;8.27;;;10.70;99.90;;;;;;5027925;28;20422;-50
2022/04/13 06:14:17;;;;;;;13.17;7.60;;;10.80;99.90;;;;;;5030214;28;20430;-51
2022/04/13 06:16:43;;;;;;;11.33;7.53;;;10.90;99.90;;;;;;5029670;28;20440;-55
2022/04/13 06:19:08;;;;;;;15.57;9.00;;;10.90;99.90;;;;;;5030163;28;20191;-51
2022/04/13 06:21:35;;;;;;;13.30;8.30;;;11.00;99.90;;;;;;5030271;28;20402;-50
2022/04/13 06:24:00;;;;;;;15.67;8.27;;;11.10;99.90;;;;;;5030350;28;20240;-51
2022/04/13 06:26:26;;;;;;;15.10;9.07;;;11.20;99.90;;;;;;5030015;28;20421;-48
2022/04/13 06:28:52;;;;;;;17.33;8.17;;;11.40;99.90;;;;;;5029493;28;20179;-49
2022/04/13 06:31:18;;;;;;;12.93;8.90;;;11.60;99.90;;;;;;5027310;28;20194;-49
2022/04/13 06:33:44;;;;;;;15.53;8.43;;;11.70;99.90;;;;;;5030049;28;20495;-50
2022/04/13 06:36:09;;;;;;;14.13;7.87;;;12.00;99.90;;;;;;5029367;28;20914;-49
2022/04/13 06:38:40;;;;;;;16.17;8.50;;;12.00;99.90;;;;;;5029538;28;20234;-49
2022/04/13 06:41:06;;;;;;;17.97;8.73;;;11.90;99.90;;;;;;5009930;28;21001;-50
2022/04/13 06:43:32;;;;;;;14.63;8.20;;;12.00;99.90;;;;;;5024182;28;20418;-50
2022/04/13 06:45:57;;;;;;;11.70;8.40;;;12.00;99.90;;;;;;5031925;28;20937;-49
2022/04/13 06:48:23;;;;;;;17.57;9.47;;;12.10;99.90;;;;;;5035423;28;20253;-49
2022/04/13 06:50:48;;;;;;;15.43;8.60;;;12.20;99.90;;;;;;5032673;28;20649;-49
2022/04/13 06:53:15;;;;;;;16.93;8.80;;;12.20;99.90;;;;;;5032926;28;20953;-51
2022/04/13 06:55:41;;;;;;;12.57;8.20;;;12.20;99.90;;;;;;5032974;28;20181;-50
2022/04/13 06:58:07;;;;;;;15.33;8.93;;;12.40;99.90;;;;;;5032678;28;20468;-49
2022/04/13 07:00:33;;;;;;;17.63;8.87;;;12.50;99.90;;;;;;5032305;28;20198;-49
2022/04/13 07:02:58;;;;;;;15.07;8.87;;;12.60;99.90;;;;;;5033171;28;20442;-49
2022/04/13 07:05:25;;;;;;;18.20;9.47;;;12.70;99.90;;;;;;5032566;28;20213;-49
2022/04/13 07:07:51;;;;;;;14.00;8.70;;;12.70;99.90;;;;;;5032610;28;20217;-50
2022/04/13 07:10:17;;;;;;;15.50;8.07;;;12.70;99.90;;;;;;5029057;28;20457;-51
2022/04/13 07:12:43;;;;;;;15.80;8.90;;;12.60;99.90;;;;;;5032712;28;20434;-49
2022/04/13 07:15:09;;;;;;;17.50;9.30;;;12.50;99.90;;;;;;5032146;28;20567;-49
2022/04/13 07:17:36;;;;;;;14.90;9.00;;;12.60;99.90;;;;;;5014963;28;20576;-50
2022/04/13 07:20:02;;;;;;;15.20;9.10;;;12.60;99.90;;;;;;5014598;28;20428;-49
2022/04/13 07:22:28;;;;;;;18.10;9.30;;;12.60;99.90;;;;;;5034531;28;20446;-50
2022/04/13 07:24:53;;;;;;;19.20;9.27;;;12.80;99.90;;;;;;5032706;28;20437;-50
2022/04/13 07:27:19;;;;;;;15.30;9.17;;;13.10;99.90;;;;;;5031643;28;20680;-49
2022/04/13 07:29:44;;;;;;;15.00;8.20;;;13.50;99.90;;;;;;5032826;28;20552;-50
2022/04/13 07:32:10;;;;;;;18.73;8.47;;;13.80;99.90;;;;;;5032981;28;20187;-50
2022/04/13 07:34:36;;;;;;;16.00;8.80;;;14.20;99.90;;;;;;5033111;28;20171;-50
2022/04/13 07:37:03;;;;;;;16.50;9.50;;;14.50;99.90;;;;;;5032359;28;20183;-50
2022/04/13 07:39:28;;;;;;;18.93;9.10;;;14.90;99.90;;;;;;5032632;28;20469;-49
2022/04/13 07:41:54;;;;;;;17.73;9.77;;;14.80;99.90;;;;;;5030373;28;20437;-49
2022/04/13 07:44:20;;;;;;;16.70;9.10;;;14.70;99.90;;;;;;5032207;28;20195;-50
2022/04/13 07:46:45;;;;;;;13.73;8.70;;;14.60;99.90;;;;;;5032177;28;20581;-49
2022/04/13 07:49:11;;;;;;;18.67;9.50;;;14.40;99.90;;;;;;5032511;28;20425;-49
2022/04/13 07:51:40;;;;;;;18.20;9.60;;;14.50;99.90;;;;;;5032363;28;20174;-49
2022/04/13 07:54:06;;;;;;;14.73;9.07;;;14.90;99.90;;;;;;5020476;28;20190;-49
2022/04/13 07:56:32;;;;;;;14.10;9.00;;;15.10;99.90;;;;;;5030777;28;20413;-50
2022/04/13 07:58:58;;;;;;;13.57;8.27;;;15.30;99.90;;;;;;4994786;28;20478;-49
2022/04/13 08:01:23;;;;;;;15.40;9.57;;;15.40;99.90;;;;;;5030802;28;20609;-49
2022/04/13 08:03:49;;;;;;;13.80;9.17;;;15.60;99.90;;;;;;5032075;28;20751;-49
2022/04/13 08:06:15;;;;;;;15.80;8.37;;;15.80;99.90;;;;;;5031808;28;20187;-49
2022/04/13 08:08:40;;;;;;;13.70;8.97;;;16.10;99.90;;;;;;5031771;28;20197;-50
2022/04/13 08:11:06;;;;;;;17.07;9.37;;;16.60;99.90;;;;;;5030923;28;20244;-49
2022/04/13 08:13:32;;;;;;;12.70;9.30;;;17.10;99.90;;;;;;5040463;28;20621;-48
2022/04/13 08:15:58;;;;;;;13.10;9.10;;;17.20;99.90;;;;;;5031062;28;20958;-48
2022/04/13 08:18:23;;;;;;;16.70;8.73;;;17.10;99.90;;;;;;5031914;28;20524;-49
2022/04/13 08:20:49;;;;;;;17.57;8.60;;;17.10;99.90;;;;;;5031695;28;20209;-50
2022/04/13 08:23:15;;;;;;;16.50;8.93;;;17.50;99.90;;;;;;5031320;28;20179;-50
2022/04/13 08:25:41;;;;;;;14.97;9.13;;;17.70;99.90;;;;;;5031943;28;20187;-49
2022/04/13 08:28:06;;;;;;;11.87;8.57;;;17.60;99.90;;;;;;5031451;28;20444;-49
2022/04/13 08:30:32;;;;;;;12.10;8.33;;;17.20;99.90;;;;;;5031553;28;20230;-50
2022/04/13 08:32:58;;;;;;;15.40;9.67;;;17.00;99.90;;;;;;5029756;28;20194;-50
2022/04/13 08:35:23;;;;;;;12.87;8.57;;;16.90;99.90;;;;;;5030878;28;20625;-50
2022/04/13 08:37:49;;;;;;;15.43;8.97;;;16.70;99.90;;;;;;5012935;28;20238;-49
2022/04/13 08:40:16;;;;;;;15.33;9.47;;;16.60;99.90;;;;;;5030779;28;20234;-49
2022/04/13 08:42:47;;;;;;;18.60;9.60;;;16.60;99.90;;;;;;5031371;28;20290;-49
2022/04/13 08:45:24;;;;;;;15.87;9.43;;;16.60;99.90;;;;;;5031078;28;20470;-50
2022/04/13 08:47:56;;;;;;;15.90;9.80;;;16.60;99.90;;;;;;5026084;28;20469;-49
2022/04/13 08:50:28;;;;;;;13.43;9.53;;;16.70;99.90;;;;;;5030425;28;20418;-50
2022/04/13 08:53:04;;;;;;;13.30;9.07;;;17.00;99.90;;;;;;5029270;28;20972;-50
2022/04/13 08:55:31;;;;;;;19.90;9.83;;;17.30;99.90;;;;;;5030092;28;20438;-49
2022/04/13 08:58:17;;;;;;;15.00;9.33;;;17.60;99.90;;;;;;5029384;28;20806;-49
2022/04/13 09:00:49;;;;;;;18.33;9.40;;;18.10;99.90;;;;;;5013051;28;20429;-49
2022/04/13 09:03:21;;;;;;;16.97;8.70;;;18.50;99.90;;;;;;5030229;28;20418;-49
2022/04/13 09:05:54;;;;;;;17.37;9.87;;;18.60;99.90;;;;;;5029178;28;20429;-49
2022/04/13 09:08:52;;;;;;;16.50;10.17;;;18.60;99.90;;;;;;5030487;28;20413;-48
2022/04/13 09:11:22;;;;;;;16.53;9.33;;;18.60;99.90;;;;;;5029865;28;20444;-50
2022/04/13 09:13:51;;;;;;;18.27;9.77;;;18.70;99.90;;;;;;5028842;28;20438;-49
2022/04/13 09:16:17;;;;;;;16.20;10.10;;;18.70;99.90;;;;;;5030001;28;20768;-48
2022/04/13 09:18:43;;;;;;;17.33;9.93;;;19.00;99.90;;;;;;5029399;28;20457;-50
2022/04/13 09:21:12;;;;;;;23.53;9.60;;;19.20;99.90;;;;;;5030288;28;20829;-50
2022/04/13 09:23:38;;;;;;;20.13;10.70;;;19.40;99.90;;;;;;5028718;28;20928;-49
2022/04/13 09:26:04;;;;;;;17.10;9.30;;;19.60;99.90;;;;;;5031373;28;20398;-49
2022/04/13 09:28:30;;;;;;;17.67;10.13;;;19.90;99.90;;;;;;5030576;28;20956;-49
2022/04/13 09:30:55;;;;;;;15.27;9.60;;;20.10;99.90;;;;;;5029667;28;20508;-49
2022/04/13 09:33:22;;;;;;;14.17;8.87;;;20.20;99.90;;;;;;5018613;28;20567;-50
2022/04/13 09:35:47;;;;;;;17.43;9.83;;;20.30;99.90;;;;;;5030567;28;20536;-50
2022/04/13 09:38:13;;;;;;;20.20;10.13;;;20.40;99.90;;;;;;5030967;28;20453;-50
2022/04/13 09:40:40;;;;;;;16.03;9.60;;;20.50;99.90;;;;;;5004647;28;21229;-50
2022/04/13 09:43:14;;;;;;;17.70;10.10;;;20.60;99.90;;;;;;5034646;28;20186;-49
2022/04/13 09:45:47;;;;;;;17.90;10.43;;;20.30;99.90;;;;;;5030905;28;20469;-50
2022/04/13 09:48:13;;;;;;;20.93;9.80;;;20.20;99.90;;;;;;5030452;28;20835;-49
2022/04/13 09:50:39;;;;;;;18.87;11.50;;;20.40;99.90;;;;;;5031081;28;20421;-49
2022/04/13 09:53:06;;;;;;;13.50;9.77;;;20.50;99.90;;;;;;5031272;28;20438;-50
2022/04/13 09:55:41;;;;;;;16.43;9.87;;;20.60;99.90;;;;;;5032137;28;20529;-49
2022/04/13 09:58:29;;;;;;;19.13;10.43;;;20.60;99.90;;;;;;5032045;28;20474;-48
2022/04/13 10:01:00;;;;;;;18.47;9.23;;;20.90;99.90;;;;;;5031971;28;20402;-49
2022/04/13 10:03:26;;;;;;;18.70;10.90;;;20.80;99.90;;;;;;5010918;28;20423;-50
2022/04/13 10:05:53;;;;;;;19.07;10.90;;;20.70;99.90;;;;;;5012192;28;20407;-49
2022/04/13 10:08:24;;;;;;;16.23;9.63;;;20.70;99.90;;;;;;5013566;28;20176;-51
2022/04/13 10:10:58;;;;;;;17.70;10.50;;;20.40;99.90;;;;;;5031608;28;20441;-49
2022/04/13 10:13:34;;;;;;;19.50;11.50;;;20.20;99.90;;;;;;5031433;28;20437;-50
2022/04/13 10:16:03;;;;;;;23.00;11.37;;;20.20;99.90;;;;;;5032208;28;20489;-49
2022/04/13 10:18:31;;;;;;;20.20;11.20;;;20.40;99.90;;;;;;5028704;28;20469;-50
2022/04/13 10:20:57;;;;;;;21.90;10.80;;;20.40;99.90;;;;;;5033756;28;20418;-50
2022/04/13 10:23:22;;;;;;;16.97;11.03;;;20.60;99.90;;;;;;5034960;28;20428;-50
2022/04/13 10:25:48;;;;;;;18.47;11.50;;;21.00;99.90;;;;;;5033755;28;20186;-50
2022/04/13 10:28:21;;;;;;;23.73;11.37;;;21.40;99.90;;;;;;5034865;28;20680;-49
2022/04/13 10:30:48;;;;;;;23.67;11.90;;;21.90;99.90;;;;;;5017648;28;20206;-49
2022/04/13 10:33:14;;;;;;;16.13;10.37;;;22.20;99.90;;;;;;5034719;28;20937;-49
2022/04/13 10:35:41;;;;;;;18.67;10.53;;;22.20;99.90;;;;;;5033554;28;20495;-49
2022/04/13 10:38:08;;;;;;;25.20;11.47;;;22.20;99.90;;;;;;5034014;28;20465;-49
2022/04/13 10:40:36;;;;;;;16.27;10.00;;;22.10;99.90;;;;;;5034481;28;20435;-50
2022/04/13 10:43:06;;;;;;;21.53;12.13;;;22.30;99.90;;;;;;5034320;28;20434;-49
2022/04/13 10:45:35;;;;;;;23.03;11.60;;;22.90;99.90;;;;;;5034696;28;20433;-49
2022/04/13 10:48:10;;;;;;;18.70;11.03;;;23.40;99.90;;;;;;5034491;28;20576;-49
2022/04/13 10:50:54;;;;;;;22.53;11.57;;;23.80;99.90;;;;;;5032970;28;20463;-49
2022/04/13 10:53:23;;;;;;;23.83;12.10;;;23.90;99.90;;;;;;5029650;28;20513;-49
2022/04/13 10:56:00;;;;;;;18.93;11.93;;;24.20;99.90;;;;;;5035196;28;20420;-50
2022/04/13 10:58:25;;;;;;;23.67;11.30;;;24.20;99.90;;;;;;5031774;28;20457;-50
2022/04/13 11:01:01;;;;;;;21.10;12.33;;;24.30;99.90;;;;;;5031334;28;20472;-50
2022/04/13 11:03:30;;;;;;;20.90;12.50;;;24.50;99.90;;;;;;5030700;28;20182;-50
2022/04/13 11:05:57;;;;;;;24.17;12.90;;;24.80;99.90;;;;;;5013191;28;20450;-50
2022/04/13 11:08:35;;;;;;;25.90;13.40;;;24.60;99.90;;;;;;5032725;28;20425;-50
2022/04/13 11:11:01;;;;;;;35.10;12.73;;;24.50;99.90;;;;;;5031974;28;20429;-50
2022/04/13 11:13:32;;;;;;;20.93;12.87;;;24.70;99.90;;;;;;5033255;28;20555;-50
2022/04/13 11:16:20;;;;;;;22.03;12.70;;;25.00;99.90;;;;;;5032448;28;20439;-50
2022/04/13 11:19:01;;;;;;;20.37;11.37;;;25.10;99.90;;;;;;5028573;28;20461;-50
2022/04/13 11:21:28;;;;;;;25.13;13.40;;;25.30;99.90;;;;;;5030311;28;20525;-51
2022/04/13 11:23:54;;;;;;;22.30;12.90;;;25.60;99.90;;;;;;5013705;28;20425;-51
2022/04/13 11:26:35;;;;;;;27.97;13.87;;;25.40;99.90;;;;;;5031616;28;20454;-51
2022/04/13 11:29:10;;;;;;;24.37;12.77;;;24.90;99.90;;;;;;5026812;28;20190;-51
2022/04/13 11:32:00;;;;;;;25.70;13.33;;;24.90;99.90;;;;;;5031295;28;20520;-51
2022/04/13 11:34:39;;;;;;;25.27;12.40;;;25.10;99.90;;;;;;5028456;28;20465;-51
2022/04/13 11:37:10;;;;;;;25.10;12.83;;;25.90;99.90;;;;;;5030924;28;20551;-51
2022/04/13 11:40:06;;;;;;;26.73;12.80;;;26.20;99.90;;;;;;5031760;28;20473;-52
2022/04/13 11:42:38;;;;;;;24.63;12.10;;;26.40;99.90;;;;;;5021380;28;20430;-51
2022/04/13 11:45:08;;;;;;;33.20;13.43;;;26.90;99.90;;;;;;5035615;28;20564;-51
2022/04/13 11:47:49;;;;;;;27.60;13.47;;;27.40;99.90;;;;;;5029962;28;20536;-52
2022/04/13 11:50:14;;;;;;;24.93;13.20;;;27.40;99.90;;;;;;5027331;28;20451;-52
2022/04/13 11:52:48;;;;;;;29.27;14.13;;;27.40;99.90;;;;;;5028247;28;20433;-51
2022/04/13 11:55:21;;;;;;;29.63;13.80;;;27.20;99.90;;;;;;5026845;28;20216;-51
2022/04/13 11:58:02;;;;;;;29.20;13.73;;;26.70;99.90;;;;;;5029788;28;20965;-52
2022/04/13 12:00:50;;;;;;;24.77;12.77;;;26.50;99.90;;;;;;5025580;28;20440;-51
2022/04/13 12:03:26;;;;;;;28.63;12.63;;;26.20;99.90;;;;;;5029902;28;20418;-52
2022/04/13 12:05:52;;;;;;;25.33;12.53;;;26.40;99.90;;;;;;5033535;28;20402;-51
2022/04/13 12:08:21;;;;;;;23.73;13.77;;;26.70;99.90;;;;;;5030956;28;20485;-52
2022/04/13 12:11:01;;;;;;;29.77;12.87;;;26.60;99.90;;;;;;5027958;28;20528;-51
2022/04/13 12:13:32;;;;;;;26.03;12.63;;;26.50;99.90;;;;;;5024779;28;20429;-51
2022/04/13 12:15:59;;;;;;;28.13;13.10;;;26.50;99.90;;;;;;5030626;28;20418;-51
2022/04/13 12:18:26;;;;;;;29.20;12.57;;;26.40;99.90;;;;;;5029853;28;20465;-51
2022/04/13 12:20:53;;;;;;;27.20;11.07;;;26.30;99.90;;;;;;5030273;28;20421;-51
2022/04/13 12:23:26;;;;;;;22.10;11.33;;;26.50;99.90;;;;;;5029671;28;20445;-51
2022/04/13 12:25:56;;;;;;;25.73;12.70;;;26.70;99.90;;;;;;5031942;28;21109;-51
2022/04/13 12:28:23;;;;;;;21.13;11.13;;;26.60;99.90;;;;;;5030566;28;20419;-51
2022/04/13 12:31:09;;;;;;;22.37;10.77;;;26.30;99.90;;;;;;5030041;28;20444;-51
2022/04/13 12:33:38;;;;;;;23.93;11.33;;;26.50;99.90;;;;;;5030982;28;20422;-52
2022/04/13 12:36:07;;;;;;;28.53;12.30;;;26.90;99.90;;;;;;5028384;28;21054;-52
2022/04/13 12:38:43;;;;;;;25.37;12.33;;;27.20;99.90;;;;;;5032189;28;20454;-51
2022/04/13 12:41:20;;;;;;;23.50;10.93;;;27.40;99.90;;;;;;5013942;28;20520;-52